sensor_id;sensor_type;location;lat;lon;timestamp;temperature;humidity
57030;DHT22;42920;45.306;20.448;2024-01-15T00:02:17;77.10;2227.20
57030;DHT22;42920;45.306;20.448;2024-01-15T00:04:43;77.20;2227.20
57030;DHT22;42920;45.306;20.448;2024-01-15T00:07:09;77.20;2227.20
57030;DHT22;42920;45.306;20.448;2024-01-15T00:09:35;77.10;2227.20
57030;DHT22;42920;45.306;20.448;2024-01-15T00:12:01;77.20;2227.20
57030;DHT22;42920;45.306;20.448;2024-01-15T00:14:27;77.20;2227.20
57030;DHT22;42920;45.306;20.448;2024-01-15T00:16:52;77.20;2227.20
57030;DHT22;42920;45.306;20.448;2024-01-15T00:19:20;77.20;2227.20
57030;DHT22;42920;45.306;20.448;2024-01-15T00:21:46;77.10;2227.20
57030;DHT22;42920;45.306;20.448;2024-01-15T00:24:12;77.10;2227.20
57030;DHT22;42920;45.306;20.448;2024-01-15T00:26:37;77.10;2227.20
57030;DHT22;42920;45.306;20.448;2024-01-15T00:29:03;77.10;2227.20
57030;DHT22;42920;45.306;20.448;2024-01-15T00:31:29;77.10;2227.20
57030;DHT22;42920;45.306;20.448;2024-01-15T00:33:55;77.00;2227.20
57030;DHT22;42920;45.306;20.448;2024-01-15T00:36:21;77.00;2227.20
57030;DHT22;42920;45.306;20.448;2024-01-15T00:38:46;77.00;2227.20
57030;DHT22;42920;45.306;20.448;2024-01-15T00:41:13;77.00;2227.20
57030;DHT22;42920;45.306;20.448;2024-01-15T00:43:38;77.00;2227.20
57030;DHT22;42920;45.306;20.448;2024-01-15T00:46:04;77.20;2227.20
57030;DHT22;42920;45.306;20.448;2024-01-15T00:48:30;77.20;2227.20
57030;DHT22;42920;45.306;20.448;2024-01-15T00:50:56;77.10;2227.20
57030;DHT22;42920;45.306;20.448;2024-01-15T00:53:22;77.10;2227.20
57030;DHT22;42920;45.306;20.448;2024-01-15T00:55:48;77.10;2227.20
57030;DHT22;42920;45.306;20.448;2024-01-15T00:58:14;77.20;2227.20
57030;DHT22;42920;45.306;20.448;2024-01-15T01:00:39;77.00;2227.20
57030;DHT22;42920;45.306;20.448;2024-01-15T01:03:05;77.00;2227.20
57030;DHT22;42920;45.306;20.448;2024-01-15T01:05:30;76.90;2227.20
57030;DHT22;42920;45.306;20.448;2024-01-15T01:07:56;76.90;2227.20
57030;DHT22;42920;45.306;20.448;2024-01-15T01:10:21;76.80;2227.20
57030;DHT22;42920;45.306;20.448;2024-01-15T01:12:47;52.10;2227.20
57030;DHT22;42920;45.306;20.448;2024-01-15T01:15:13;52.10;2227.20
57030;DHT22;42920;45.306;20.448;2024-01-15T01:17:38;52.10;2227.20
57030;DHT22;42920;45.306;20.448;2024-01-15T01:20:04;52.10;2227.20
57030;DHT22;42920;45.306;20.448;2024-01-15T01:22:31;52.10;2227.20
57030;DHT22;42920;45.306;20.448;2024-01-15T01:24:57;52.10;2227.20
57030;DHT22;42920;45.306;20.448;2024-01-15T01:27:22;52.00;2227.20
57030;DHT22;42920;45.306;20.448;2024-01-15T01:29:48;52.10;2227.20
57030;DHT22;42920;45.306;20.448;2024-01-15T01:32:14;52.10;2227.20
57030;DHT22;42920;45.306;20.448;2024-01-15T01:34:40;52.10;2227.20
57030;DHT22;42920;45.306;20.448;2024-01-15T01:37:08;76.80;2227.20
57030;DHT22;42920;45.306;20.448;2024-01-15T01:39:33;51.50;2227.20
57030;DHT22;42920;45.306;20.448;2024-01-15T01:41:59;52.00;2227.20
57030;DHT22;42920;45.306;20.448;2024-01-15T01:44:24;52.10;2227.20
57030;DHT22;42920;45.306;20.448;2024-01-15T01:46:50;52.00;2227.20
57030;DHT22;42920;45.306;20.448;2024-01-15T01:49:15;52.00;2227.20
57030;DHT22;42920;45.306;20.448;2024-01-15T01:51:42;52.00;2227.20
57030;DHT22;42920;45.306;20.448;2024-01-15T01:54:07;51.90;2227.20
57030;DHT22;42920;45.306;20.448;2024-01-15T01:56:34;51.90;2227.20
57030;DHT22;42920;45.306;20.448;2024-01-15T01:59:01;51.90;2227.20
57030;DHT22;42920;45.306;20.448;2024-01-15T02:01:27;51.90;2227.20
57030;DHT22;42920;45.306;20.448;2024-01-15T02:03:52;51.90;2227.20
57030;DHT22;42920;45.306;20.448;2024-01-15T02:06:18;51.90;2227.20
57030;DHT22;42920;45.306;20.448;2024-01-15T02:08:44;51.80;2227.20
57030;DHT22;42920;45.306;20.448;2024-01-15T02:11:10;51.80;2227.20
57030;DHT22;42920;45.306;20.448;2024-01-15T02:13:36;51.90;2227.20
57030;DHT22;42920;45.306;20.448;2024-01-15T02:16:01;52.00;2227.20
57030;DHT22;42920;45.306;20.448;2024-01-15T02:18:27;52.00;2227.20
57030;DHT22;42920;45.306;20.448;2024-01-15T02:20:53;51.90;2227.20
57030;DHT22;42920;45.306;20.448;2024-01-15T02:23:18;51.90;2227.20
57030;DHT22;42920;45.306;20.448;2024-01-15T02:25:44;51.90;2227.20
57030;DHT22;42920;45.306;20.448;2024-01-15T02:28:15;51.90;2227.20
57030;DHT22;42920;45.306;20.448;2024-01-15T02:30:41;52.10;2227.20
57030;DHT22;42920;45.306;20.448;2024-01-15T02:33:07;52.10;2227.20
57030;DHT22;42920;45.306;20.448;2024-01-15T02:35:34;52.10;2227.20
57030;DHT22;42920;45.306;20.448;2024-01-15T02:38:02;52.00;2227.20
57030;DHT22;42920;45.306;20.448;2024-01-15T02:40:28;52.00;2227.20
57030;DHT22;42920;45.306;20.448;2024-01-15T02:42:53;52.00;2227.20
57030;DHT22;42920;45.306;20.448;2024-01-15T02:45:19;52.00;2227.20
57030;DHT22;42920;45.306;20.448;2024-01-15T02:47:45;51.90;2227.20
57030;DHT22;42920;45.306;20.448;2024-01-15T02:50:10;51.90;2227.20
57030;DHT22;42920;45.306;20.448;2024-01-15T02:52:36;51.90;2227.20
57030;DHT22;42920;45.306;20.448;2024-01-15T02:55:02;52.00;2227.20
57030;DHT22;42920;45.306;20.448;2024-01-15T02:57:27;52.00;2227.20
57030;DHT22;42920;45.306;20.448;2024-01-15T02:59:53;51.90;2227.20
57030;DHT22;42920;45.306;20.448;2024-01-15T03:02:18;51.90;2227.20
57030;DHT22;42920;45.306;20.448;2024-01-15T03:04:44;52.10;2227.20
57030;DHT22;42920;45.306;20.448;2024-01-15T03:07:10;52.00;2227.20
57030;DHT22;42920;45.306;20.448;2024-01-15T03:09:35;52.00;2227.20
57030;DHT22;42920;45.306;20.448;2024-01-15T03:12:01;51.90;2227.20
57030;DHT22;42920;45.306;20.448;2024-01-15T03:14:26;51.80;2227.20
57030;DHT22;42920;45.306;20.448;2024-01-15T03:16:52;51.70;2227.20
57030;DHT22;42920;45.306;20.448;2024-01-15T03:19:18;51.60;2227.20
57030;DHT22;42920;45.306;20.448;2024-01-15T03:21:43;51.60;2227.20
57030;DHT22;42920;45.306;20.448;2024-01-15T03:24:09;51.60;2227.20
57030;DHT22;42920;45.306;20.448;2024-01-15T03:26:35;51.50;2227.20
57030;DHT22;42920;45.306;20.448;2024-01-15T03:29:00;51.60;2227.20
57030;DHT22;42920;45.306;20.448;2024-01-15T03:31:26;51.60;2227.20
57030;DHT22;42920;45.306;20.448;2024-01-15T03:33:51;51.60;2227.20
57030;DHT22;42920;45.306;20.448;2024-01-15T03:36:17;51.70;2227.20
57030;DHT22;42920;45.306;20.448;2024-01-15T03:38:43;51.80;2227.20
57030;DHT22;42920;45.306;20.448;2024-01-15T03:41:08;51.80;2227.20
57030;DHT22;42920;45.306;20.448;2024-01-15T03:43:34;51.80;2227.20
57030;DHT22;42920;45.306;20.448;2024-01-15T03:45:59;51.90;2227.20
57030;DHT22;42920;45.306;20.448;2024-01-15T03:48:25;51.90;2227.20
57030;DHT22;42920;45.306;20.448;2024-01-15T03:50:51;51.90;2227.20
57030;DHT22;42920;45.306;20.448;2024-01-15T03:53:16;51.90;2227.20
57030;DHT22;42920;45.306;20.448;2024-01-15T03:55:42;51.90;2227.20
57030;DHT22;42920;45.306;20.448;2024-01-15T03:58:08;51.90;2227.20
57030;DHT22;42920;45.306;20.448;2024-01-15T04:00:33;51.90;2227.20
57030;DHT22;42920;45.306;20.448;2024-01-15T04:02:59;51.90;2227.20
57030;DHT22;42920;45.306;20.448;2024-01-15T04:05:25;51.90;2227.20
57030;DHT22;42920;45.306;20.448;2024-01-15T04:07:51;51.90;2227.20
57030;DHT22;42920;45.306;20.448;2024-01-15T04:10:16;52.00;2227.20
57030;DHT22;42920;45.306;20.448;2024-01-15T04:12:42;52.00;2227.20
57030;DHT22;42920;45.306;20.448;2024-01-15T04:15:08;52.00;2227.20
57030;DHT22;42920;45.306;20.448;2024-01-15T04:17:33;52.00;2227.20
57030;DHT22;42920;45.306;20.448;2024-01-15T04:19:59;52.00;2227.20
57030;DHT22;42920;45.306;20.448;2024-01-15T04:22:25;52.10;2227.20
57030;DHT22;42920;45.306;20.448;2024-01-15T04:24:50;52.00;2227.20
57030;DHT22;42920;45.306;20.448;2024-01-15T04:27:16;52.00;2227.20
57030;DHT22;42920;45.306;20.448;2024-01-15T04:29:41;52.10;2227.20
57030;DHT22;42920;45.306;20.448;2024-01-15T04:32:07;52.10;2227.20
57030;DHT22;42920;45.306;20.448;2024-01-15T04:34:33;52.10;2227.20
57030;DHT22;42920;45.306;20.448;2024-01-15T04:36:58;52.10;2227.20
57030;DHT22;42920;45.306;20.448;2024-01-15T04:39:24;52.10;2227.20
57030;DHT22;42920;45.306;20.448;2024-01-15T04:41:49;52.10;2227.20
57030;DHT22;42920;45.306;20.448;2024-01-15T04:44:15;52.10;2227.20
57030;DHT22;42920;45.306;20.448;2024-01-15T04:46:41;52.00;2227.20
57030;DHT22;42920;45.306;20.448;2024-01-15T04:49:09;52.00;2227.20
57030;DHT22;42920;45.306;20.448;2024-01-15T04:51:34;52.10;2227.20
57030;DHT22;42920;45.306;20.448;2024-01-15T04:54:00;52.10;2227.20
57030;DHT22;42920;45.306;20.448;2024-01-15T04:56:26;52.00;2227.20
57030;DHT22;42920;45.306;20.448;2024-01-15T04:58:52;52.10;2227.20
57030;DHT22;42920;45.306;20.448;2024-01-15T05:01:17;52.10;2227.20
57030;DHT22;42920;45.306;20.448;2024-01-15T05:03:43;76.80;2227.20
57030;DHT22;42920;45.306;20.448;2024-01-15T05:06:09;76.80;2227.20
57030;DHT22;42920;45.306;20.448;2024-01-15T05:08:34;76.80;2227.20
57030;DHT22;42920;45.306;20.448;2024-01-15T05:11:00;52.10;2227.20
57030;DHT22;42920;45.306;20.448;2024-01-15T05:13:25;52.10;2227.20
57030;DHT22;42920;45.306;20.448;2024-01-15T05:15:51;51.90;2227.20
57030;DHT22;42920;45.306;20.448;2024-01-15T05:18:17;51.90;2227.20
57030;DHT22;42920;45.306;20.448;2024-01-15T05:20:43;52.10;2227.20
57030;DHT22;42920;45.306;20.448;2024-01-15T05:23:08;52.10;2227.20
57030;DHT22;42920;45.306;20.448;2024-01-15T05:25:34;76.80;2227.20
57030;DHT22;42920;45.306;20.448;2024-01-15T05:27:59;76.90;2227.20
57030;DHT22;42920;45.306;20.448;2024-01-15T05:30:25;77.00;2227.20
57030;DHT22;42920;45.306;20.448;2024-01-15T05:32:51;77.00;2227.20
57030;DHT22;42920;45.306;20.448;2024-01-15T05:35:16;77.10;2227.20
57030;DHT22;42920;45.306;20.448;2024-01-15T05:37:43;77.10;2227.20
57030;DHT22;42920;45.306;20.448;2024-01-15T05:40:09;77.20;2227.20
57030;DHT22;42920;45.306;20.448;2024-01-15T05:42:35;77.20;2227.20
57030;DHT22;42920;45.306;20.448;2024-01-15T05:45:00;77.20;2227.20
57030;DHT22;42920;45.306;20.448;2024-01-15T05:47:29;77.20;2227.20
57030;DHT22;42920;45.306;20.448;2024-01-15T05:49:56;77.20;2227.20
57030;DHT22;42920;45.306;20.448;2024-01-15T05:52:21;77.20;2227.20
57030;DHT22;42920;45.306;20.448;2024-01-15T05:54:47;77.30;2227.20
57030;DHT22;42920;45.306;20.448;2024-01-15T05:57:13;77.30;2227.20
57030;DHT22;42920;45.306;20.448;2024-01-15T05:59:38;77.50;2227.20
57030;DHT22;42920;45.306;20.448;2024-01-15T06:02:04;77.30;2227.20
57030;DHT22;42920;45.306;20.448;2024-01-15T06:04:30;77.40;2227.20
57030;DHT22;42920;45.306;20.448;2024-01-15T06:06:55;77.50;2227.20
57030;DHT22;42920;45.306;20.448;2024-01-15T06:09:21;77.50;2227.20
57030;DHT22;42920;45.306;20.448;2024-01-15T06:11:46;77.60;2227.20
57030;DHT22;42920;45.306;20.448;2024-01-15T06:14:12;77.70;2227.20
57030;DHT22;42920;45.306;20.448;2024-01-15T06:16:38;102.40;2227.20
57030;DHT22;42920;45.306;20.448;2024-01-15T06:19:03;77.70;2227.20
57030;DHT22;42920;45.306;20.448;2024-01-15T06:21:29;77.70;2227.20
57030;DHT22;42920;45.306;20.448;2024-01-15T06:23:55;77.60;2227.20
57030;DHT22;42920;45.306;20.448;2024-01-15T06:26:22;77.50;2227.20
57030;DHT22;42920;45.306;20.448;2024-01-15T06:28:48;77.40;2227.20
57030;DHT22;42920;45.306;20.448;2024-01-15T06:31:13;77.40;2227.20
57030;DHT22;42920;45.306;20.448;2024-01-15T06:33:39;77.30;2227.20
57030;DHT22;42920;45.306;20.448;2024-01-15T06:36:05;77.60;2227.20
57030;DHT22;42920;45.306;20.448;2024-01-15T06:38:31;77.40;2227.20
57030;DHT22;42920;45.306;20.448;2024-01-15T06:40:57;77.40;2227.20
57030;DHT22;42920;45.306;20.448;2024-01-15T06:43:22;77.30;2227.20
57030;DHT22;42920;45.306;20.448;2024-01-15T06:45:48;77.30;2227.20
57030;DHT22;42920;45.306;20.448;2024-01-15T06:48:13;77.20;2227.20
57030;DHT22;42920;45.306;20.448;2024-01-15T06:50:44;77.20;2227.20
57030;DHT22;42920;45.306;20.448;2024-01-15T06:53:10;77.20;2227.20
57030;DHT22;42920;45.306;20.448;2024-01-15T06:55:36;77.20;2227.20
57030;DHT22;42920;45.306;20.448;2024-01-15T06:58:01;77.20;2227.20
57030;DHT22;42920;45.306;20.448;2024-01-15T07:00:27;77.20;2227.20
57030;DHT22;42920;45.306;20.448;2024-01-15T07:02:53;77.10;2227.20
57030;DHT22;42920;45.306;20.448;2024-01-15T07:05:19;77.20;2227.20
57030;DHT22;42920;45.306;20.448;2024-01-15T07:07:45;77.20;2227.20
57030;DHT22;42920;45.306;20.448;2024-01-15T07:10:11;77.20;2227.20
57030;DHT22;42920;45.306;20.448;2024-01-15T07:12:36;77.20;2227.20
57030;DHT22;42920;45.306;20.448;2024-01-15T07:15:02;77.30;2227.20
57030;DHT22;42920;45.306;20.448;2024-01-15T07:17:29;77.60;2227.20
57030;DHT22;42920;45.306;20.448;2024-01-15T07:19:56;77.40;2227.20
57030;DHT22;42920;45.306;20.448;2024-01-15T07:22:21;77.40;2227.20
57030;DHT22;42920;45.306;20.448;2024-01-15T07:24:47;77.40;2227.20
57030;DHT22;42920;45.306;20.448;2024-01-15T07:27:13;77.40;2227.20
57030;DHT22;42920;45.306;20.448;2024-01-15T07:29:38;77.50;2227.20
57030;DHT22;42920;45.306;20.448;2024-01-15T07:32:04;77.60;2227.20
57030;DHT22;42920;45.306;20.448;2024-01-15T07:34:30;77.70;2227.20
57030;DHT22;42920;45.306;20.448;2024-01-15T07:36:56;102.50;2227.20
57030;DHT22;42920;45.306;20.448;2024-01-15T07:39:22;102.40;2227.20
57030;DHT22;42920;45.306;20.448;2024-01-15T07:41:50;102.40;2227.20
57030;DHT22;42920;45.306;20.448;2024-01-15T07:44:15;77.70;2227.20
57030;DHT22;42920;45.306;20.448;2024-01-15T07:46:45;77.70;2227.20
57030;DHT22;42920;45.306;20.448;2024-01-15T07:49:11;102.40;2227.20
57030;DHT22;42920;45.306;20.448;2024-01-15T07:51:37;102.40;2227.20
57030;DHT22;42920;45.306;20.448;2024-01-15T07:54:02;102.40;2227.20
57030;DHT22;42920;45.306;20.448;2024-01-15T07:56:28;102.40;2227.20
57030;DHT22;42920;45.306;20.448;2024-01-15T07:58:54;77.70;2227.20
57030;DHT22;42920;45.306;20.448;2024-01-15T08:01:19;77.70;2227.20
57030;DHT22;42920;45.306;20.448;2024-01-15T08:03:45;77.70;2227.20
57030;DHT22;42920;45.306;20.448;2024-01-15T08:06:10;77.70;2227.20
57030;DHT22;42920;45.306;20.448;2024-01-15T08:08:39;77.60;2227.20
57030;DHT22;42920;45.306;20.448;2024-01-15T08:11:05;77.60;2227.20
57030;DHT22;42920;45.306;20.448;2024-01-15T08:13:30;77.70;2227.20
57030;DHT22;42920;45.306;20.448;2024-01-15T08:15:56;102.50;2227.20
57030;DHT22;42920;45.306;20.448;2024-01-15T08:18:21;102.60;2227.20
57030;DHT22;42920;45.306;20.448;2024-01-15T08:20:47;102.70;2227.20
57030;DHT22;42920;45.306;20.448;2024-01-15T08:23:13;102.60;2227.20
57030;DHT22;42920;45.306;20.448;2024-01-15T08:25:39;102.60;2227.20
57030;DHT22;42920;45.306;20.448;2024-01-15T08:28:04;102.70;2227.20
57030;DHT22;42920;45.306;20.448;2024-01-15T08:30:30;102.80;2227.20
57030;DHT22;42920;45.306;20.448;2024-01-15T08:32:56;102.80;2227.20
57030;DHT22;42920;45.306;20.448;2024-01-15T08:35:22;102.80;2227.20
57030;DHT22;42920;45.306;20.448;2024-01-15T08:37:51;102.80;2227.20
57030;DHT22;42920;45.306;20.448;2024-01-15T08:40:17;102.80;2227.20
57030;DHT22;42920;45.306;20.448;2024-01-15T08:42:43;102.90;2227.20
57030;DHT22;42920;45.306;20.448;2024-01-15T08:45:09;102.90;2227.20
57030;DHT22;42920;45.306;20.448;2024-01-15T08:47:35;102.90;2227.20
57030;DHT22;42920;45.306;20.448;2024-01-15T08:50:01;102.80;2227.20
57030;DHT22;42920;45.306;20.448;2024-01-15T08:52:26;102.80;2227.20
57030;DHT22;42920;45.306;20.448;2024-01-15T08:54:52;102.90;2227.20
57030;DHT22;42920;45.306;20.448;2024-01-15T08:57:17;103.00;2227.20
57030;DHT22;42920;45.306;20.448;2024-01-15T08:59:43;103.00;2227.20
57030;DHT22;42920;45.306;20.448;2024-01-15T09:02:10;103.00;2227.20
57030;DHT22;42920;45.306;20.448;2024-01-15T09:04:36;103.00;2227.20
57030;DHT22;42920;45.306;20.448;2024-01-15T09:07:01;103.10;2227.20
57030;DHT22;42920;45.306;20.448;2024-01-15T09:09:27;103.20;2227.20
57030;DHT22;42920;45.306;20.448;2024-01-15T09:11:53;103.10;2227.20
57030;DHT22;42920;45.306;20.448;2024-01-15T09:14:18;103.10;2227.20
57030;DHT22;42920;45.306;20.448;2024-01-15T09:16:44;103.20;2227.20
57030;DHT22;42920;45.306;20.448;2024-01-15T09:19:10;103.20;2227.20
57030;DHT22;42920;45.306;20.448;2024-01-15T09:21:37;103.10;2227.20
57030;DHT22;42920;45.306;20.448;2024-01-15T09:24:03;103.10;2227.20
57030;DHT22;42920;45.306;20.448;2024-01-15T09:26:29;103.10;2227.20
57030;DHT22;42920;45.306;20.448;2024-01-15T09:28:55;103.10;2227.20
57030;DHT22;42920;45.306;20.448;2024-01-15T09:31:20;103.30;2227.20
57030;DHT22;42920;45.306;20.448;2024-01-15T09:33:47;128.10;2252.80
57030;DHT22;42920;45.306;20.448;2024-01-15T09:36:12;128.20;2252.80
57030;DHT22;42920;45.306;20.448;2024-01-15T09:38:40;128.30;2252.80
57030;DHT22;42920;45.306;20.448;2024-01-15T09:41:05;128.30;2252.80
57030;DHT22;42920;45.306;20.448;2024-01-15T09:43:31;128.20;2252.80
57030;DHT22;42920;45.306;20.448;2024-01-15T09:45:57;128.00;2252.80
57030;DHT22;42920;45.306;20.448;2024-01-15T09:48:22;128.00;2252.80
57030;DHT22;42920;45.306;20.448;2024-01-15T09:50:48;128.10;2252.80
57030;DHT22;42920;45.306;20.448;2024-01-15T09:53:14;128.50;2252.80
57030;DHT22;42920;45.306;20.448;2024-01-15T09:55:41;128.30;2252.80
57030;DHT22;42920;45.306;20.448;2024-01-15T09:58:06;128.60;2252.80
57030;DHT22;42920;45.306;20.448;2024-01-15T10:00:33;128.20;2252.80
57030;DHT22;42920;45.306;20.448;2024-01-15T10:03:02;128.20;2252.80
57030;DHT22;42920;45.306;20.448;2024-01-15T10:05:28;128.40;2252.80
57030;DHT22;42920;45.306;20.448;2024-01-15T10:07:54;128.50;2252.80
57030;DHT22;42920;45.306;20.448;2024-01-15T10:10:21;128.70;2252.80
57030;DHT22;42920;45.306;20.448;2024-01-15T10:12:47;128.80;2252.80
57030;DHT22;42920;45.306;20.448;2024-01-15T10:15:13;128.70;2252.80
57030;DHT22;42920;45.306;20.448;2024-01-15T10:17:39;128.60;2252.80
57030;DHT22;42920;45.306;20.448;2024-01-15T10:20:09;128.70;2252.80
57030;DHT22;42920;45.306;20.448;2024-01-15T10:22:35;128.70;2252.80
57030;DHT22;42920;45.306;20.448;2024-01-15T10:25:03;128.40;2252.80
57030;DHT22;42920;45.306;20.448;2024-01-15T10:27:29;128.30;2252.80
57030;DHT22;42920;45.306;20.448;2024-01-15T10:29:54;128.00;2252.80
57030;DHT22;42920;45.306;20.448;2024-01-15T10:32:24;128.30;2252.80
57030;DHT22;42920;45.306;20.448;2024-01-15T10:34:50;128.40;2252.80
57030;DHT22;42920;45.306;20.448;2024-01-15T10:37:19;128.30;2252.80
57030;DHT22;42920;45.306;20.448;2024-01-15T10:39:45;128.60;2252.80
57030;DHT22;42920;45.306;20.448;2024-01-15T10:42:11;128.80;2252.80
57030;DHT22;42920;45.306;20.448;2024-01-15T10:44:37;128.70;2252.80
57030;DHT22;42920;45.306;20.448;2024-01-15T10:47:02;128.60;2252.80
57030;DHT22;42920;45.306;20.448;2024-01-15T10:49:29;128.60;2252.80
57030;DHT22;42920;45.306;20.448;2024-01-15T10:51:56;128.70;2252.80
57030;DHT22;42920;45.306;20.448;2024-01-15T10:54:21;128.80;2252.80
57030;DHT22;42920;45.306;20.448;2024-01-15T10:56:49;128.80;2252.80
57030;DHT22;42920;45.306;20.448;2024-01-15T10:59:15;128.60;2252.80
57030;DHT22;42920;45.306;20.448;2024-01-15T11:01:41;128.50;2252.80
57030;DHT22;42920;45.306;20.448;2024-01-15T11:04:07;128.50;2252.80
57030;DHT22;42920;45.306;20.448;2024-01-15T11:06:43;128.60;2252.80
57030;DHT22;42920;45.306;20.448;2024-01-15T11:09:09;128.60;2252.80
57030;DHT22;42920;45.306;20.448;2024-01-15T11:11:35;128.60;2252.80
57030;DHT22;42920;45.306;20.448;2024-01-15T11:14:02;128.60;2252.80
57030;DHT22;42920;45.306;20.448;2024-01-15T11:16:52;128.80;2252.80
57030;DHT22;42920;45.306;20.448;2024-01-15T11:19:13;128.80;2252.80
57030;DHT22;42920;45.306;20.448;2024-01-15T11:21:41;128.60;2252.80
57030;DHT22;42920;45.306;20.448;2024-01-15T11:24:07;128.40;2252.80
57030;DHT22;42920;45.306;20.448;2024-01-15T11:26:37;128.50;2252.80
57030;DHT22;42920;45.306;20.448;2024-01-15T11:29:04;128.50;2252.80
57030;DHT22;42920;45.306;20.448;2024-01-15T11:31:56;128.50;2252.80
57030;DHT22;42920;45.306;20.448;2024-01-15T11:34:16;128.60;2252.80
57030;DHT22;42920;45.306;20.448;2024-01-15T11:42:00;128.30;2252.80
57030;DHT22;42920;45.306;20.448;2024-01-15T11:44:27;128.10;2252.80
57030;DHT22;42920;45.306;20.448;2024-01-15T11:47:00;128.10;2252.80
57030;DHT22;42920;45.306;20.448;2024-01-15T11:52:12;128.00;2252.80
57030;DHT22;42920;45.306;20.448;2024-01-15T11:54:39;128.10;2252.80
57030;DHT22;42920;45.306;20.448;2024-01-15T11:57:09;128.10;2252.80
57030;DHT22;42920;45.306;20.448;2024-01-15T11:59:35;128.10;2252.80
57030;DHT22;42920;45.306;20.448;2024-01-15T12:02:01;103.30;2227.20
57030;DHT22;42920;45.306;20.448;2024-01-15T12:04:28;128.20;2252.80
57030;DHT22;42920;45.306;20.448;2024-01-15T12:06:54;128.10;2252.80
57030;DHT22;42920;45.306;20.448;2024-01-15T12:09:20;128.10;2252.80
57030;DHT22;42920;45.306;20.448;2024-01-15T12:11:49;128.10;2252.80
57030;DHT22;42920;45.306;20.448;2024-01-15T12:14:16;128.10;2252.80
57030;DHT22;42920;45.306;20.448;2024-01-15T12:16:42;128.30;2252.80
57030;DHT22;42920;45.306;20.448;2024-01-15T12:19:07;128.20;2252.80
57030;DHT22;42920;45.306;20.448;2024-01-15T12:21:33;128.30;2252.80
57030;DHT22;42920;45.306;20.448;2024-01-15T12:23:59;128.30;2252.80
57030;DHT22;42920;45.306;20.448;2024-01-15T12:26:25;128.30;2252.80
57030;DHT22;42920;45.306;20.448;2024-01-15T12:28:50;128.30;2252.80
57030;DHT22;42920;45.306;20.448;2024-01-15T12:31:16;128.50;2252.80
57030;DHT22;42920;45.306;20.448;2024-01-15T12:33:42;128.80;2252.80
57030;DHT22;42920;45.306;20.448;2024-01-15T12:36:08;128.80;2252.80
57030;DHT22;42920;45.306;20.448;2024-01-15T12:38:34;128.60;2252.80
57030;DHT22;42920;45.306;20.448;2024-01-15T12:41:00;128.70;2252.80
57030;DHT22;42920;45.306;20.448;2024-01-15T12:43:25;128.90;2252.80
57030;DHT22;42920;45.306;20.448;2024-01-15T12:45:51;153.60;2252.80
57030;DHT22;42920;45.306;20.448;2024-01-15T12:48:17;153.70;2252.80
57030;DHT22;42920;45.306;20.448;2024-01-15T12:50:43;153.70;2252.80
57030;DHT22;42920;45.306;20.448;2024-01-15T12:53:10;153.90;2252.80
57030;DHT22;42920;45.306;20.448;2024-01-15T12:55:37;153.80;2252.80
57030;DHT22;42920;45.306;20.448;2024-01-15T12:58:03;153.80;2252.80
57030;DHT22;42920;45.306;20.448;2024-01-15T13:00:29;154.00;2252.80
57030;DHT22;42920;45.306;20.448;2024-01-15T13:02:56;154.10;2252.80
57030;DHT22;42920;45.306;20.448;2024-01-15T13:05:22;154.10;2252.80
57030;DHT22;42920;45.306;20.448;2024-01-15T13:07:48;154.10;2252.80
57030;DHT22;42920;45.306;20.448;2024-01-15T13:10:14;154.00;2252.80
57030;DHT22;42920;45.306;20.448;2024-01-15T13:12:40;153.70;2252.80
57030;DHT22;42920;45.306;20.448;2024-01-15T13:15:06;128.80;2252.80
57030;DHT22;42920;45.306;20.448;2024-01-15T13:17:37;128.70;2252.80
57030;DHT22;42920;45.306;20.448;2024-01-15T13:20:02;128.80;2252.80
57030;DHT22;42920;45.306;20.448;2024-01-15T13:22:28;128.70;2252.80
57030;DHT22;42920;45.306;20.448;2024-01-15T13:24:57;128.80;2252.80
57030;DHT22;42920;45.306;20.448;2024-01-15T13:27:23;128.70;2252.80
57030;DHT22;42920;45.306;20.448;2024-01-15T13:29:49;128.80;2252.80
57030;DHT22;42920;45.306;20.448;2024-01-15T13:32:15;128.70;2252.80
57030;DHT22;42920;45.306;20.448;2024-01-15T13:34:42;128.70;2252.80
57030;DHT22;42920;45.306;20.448;2024-01-15T13:37:08;128.60;2252.80
57030;DHT22;42920;45.306;20.448;2024-01-15T13:39:35;128.60;2176.00
57030;DHT22;42920;45.306;20.448;2024-01-15T13:42:02;128.60;2252.80
57030;DHT22;42920;45.306;20.448;2024-01-15T13:44:28;128.70;2252.80
57030;DHT22;42920;45.306;20.448;2024-01-15T13:46:53;128.70;2252.80
57030;DHT22;42920;45.306;20.448;2024-01-15T13:49:19;128.70;2252.80
57030;DHT22;42920;45.306;20.448;2024-01-15T13:51:44;128.70;2252.80
57030;DHT22;42920;45.306;20.448;2024-01-15T13:54:10;128.70;2252.80
57030;DHT22;42920;45.306;20.448;2024-01-15T13:56:36;128.70;2252.80
57030;DHT22;42920;45.306;20.448;2024-01-15T13:59:01;128.70;2252.80
57030;DHT22;42920;45.306;20.448;2024-01-15T14:01:29;128.60;2252.80
57030;DHT22;42920;45.306;20.448;2024-01-15T14:03:54;128.60;2252.80
57030;DHT22;42920;45.306;20.448;2024-01-15T14:06:20;128.60;2252.80
57030;DHT22;42920;45.306;20.448;2024-01-15T14:08:46;128.50;2252.80
57030;DHT22;42920;45.306;20.448;2024-01-15T14:11:12;128.50;2252.80
57030;DHT22;42920;45.306;20.448;2024-01-15T14:13:37;128.50;2252.80
57030;DHT22;42920;45.306;20.448;2024-01-15T14:16:03;128.50;2252.80
57030;DHT22;42920;45.306;20.448;2024-01-15T14:18:29;128.40;2252.80
57030;DHT22;42920;45.306;20.448;2024-01-15T14:20:54;128.50;2252.80
57030;DHT22;42920;45.306;20.448;2024-01-15T14:23:20;128.40;2252.80
57030;DHT22;42920;45.306;20.448;2024-01-15T14:25:46;128.20;2252.80
57030;DHT22;42920;45.306;20.448;2024-01-15T14:28:11;128.50;2252.80
57030;DHT22;42920;45.306;20.448;2024-01-15T14:30:37;128.40;2252.80
57030;DHT22;42920;45.306;20.448;2024-01-15T14:33:03;128.40;2252.80
57030;DHT22;42920;45.306;20.448;2024-01-15T14:35:28;128.40;2252.80
57030;DHT22;42920;45.306;20.448;2024-01-15T14:37:54;128.30;2252.80
57030;DHT22;42920;45.306;20.448;2024-01-15T14:40:19;128.20;2252.80
57030;DHT22;42920;45.306;20.448;2024-01-15T14:42:45;128.10;2252.80
57030;DHT22;42920;45.306;20.448;2024-01-15T14:45:11;128.00;2252.80